Time;durP1;ratioP1;P1;durP2;ratioP2;P2;SDS_P1;SDS_P2;PMS_P1;PMS_P2;Temp;Humidity;BMP_temperature;BMP_pressure;BME280_temperature;BME280_humidity;BME280_pressure;Samples;Min_cycle;Max_cycle;Signal;HPM_P1;HPM_P2
2022/06/25 00:01:35;;;;;;;3.33;1.92;;;16.70;94.10;;;;;;4203480;28;20040;-65
2022/06/25 00:03:37;;;;;;;8.20;2.30;;;16.70;94.10;;;;;;4211034;28;20468;-61
2022/06/25 00:05:39;;;;;;;3.13;2.22;;;16.70;94.20;;;;;;4209991;28;20044;-60
2022/06/25 00:07:40;;;;;;;3.30;2.20;;;16.70;94.30;;;;;;4211177;28;20044;-60
2022/06/25 00:09:41;;;;;;;2.88;1.88;;;16.80;94.60;;;;;;4209835;28;20070;-60
2022/06/25 00:14:07;;;;;;;5.93;1.70;;;16.80;94.80;;;;;;4210635;28;20439;-61
2022/06/25 00:16:08;;;;;;;3.92;2.00;;;16.70;95.10;;;;;;4203502;28;20590;-57
2022/06/25 00:18:09;;;;;;;5.53;2.40;;;16.60;95.20;;;;;;4193603;28;20048;-61
2022/06/25 00:20:11;;;;;;;2.88;2.28;;;16.50;95.80;;;;;;4194450;28;20110;-62
2022/06/25 00:22:12;;;;;;;3.22;2.50;;;16.40;96.10;;;;;;4193352;28;20094;-60
2022/06/25 00:24:16;;;;;;;2.35;2.05;;;16.30;96.30;;;;;;4194438;28;20134;-59
2022/06/25 00:26:17;;;;;;;3.92;2.65;;;16.30;96.30;;;;;;4193383;28;20059;-60
2022/06/25 00:28:18;;;;;;;1.95;1.67;;;16.30;96.40;;;;;;4195205;28;20032;-61
2022/06/25 00:30:19;;;;;;;2.95;1.75;;;16.30;96.50;;;;;;4210107;28;20089;-60
2022/06/25 00:32:20;;;;;;;4.93;2.30;;;16.30;96.40;;;;;;4210679;28;20050;-60
2022/06/25 00:34:21;;;;;;;3.83;1.90;;;16.40;96.40;;;;;;4210396;28;20016;-60
2022/06/25 00:36:23;;;;;;;4.38;2.42;;;16.40;96.50;;;;;;4194744;28;20040;-61
2022/06/25 00:38:24;;;;;;;3.33;2.20;;;16.40;96.50;;;;;;4195364;28;20484;-64
2022/06/25 00:40:25;;;;;;;3.60;2.63;;;16.50;96.50;;;;;;4195924;28;20028;-64
2022/06/25 00:42:26;;;;;;;5.45;2.67;;;16.60;96.40;;;;;;4197391;28;20090;-60
2022/06/25 00:44:30;;;;;;;5.07;2.47;;;16.60;96.30;;;;;;4196563;28;20439;-60
2022/06/25 00:46:31;;;;;;;6.32;2.95;;;16.60;96.20;;;;;;4197330;28;20090;-60
2022/06/25 00:48:32;;;;;;;8.00;2.90;;;16.50;96.20;;;;;;4195950;28;20480;-66
2022/06/25 00:50:33;;;;;;;4.95;3.47;;;16.50;96.40;;;;;;4197038;28;20036;-58
2022/06/25 00:52:38;;;;;;;5.82;3.65;;;16.40;96.50;;;;;;4196189;28;20094;-64
2022/06/25 00:54:49;;;;;;;7.38;3.85;;;16.40;96.60;;;;;;4196884;28;20040;-61
2022/06/25 00:56:51;;;;;;;5.13;4.05;;;16.40;96.80;;;;;;4197040;28;20048;-61
2022/06/25 00:58:56;;;;;;;7.28;3.28;;;16.30;96.90;;;;;;4197167;28;20036;-60
2022/06/25 01:00:59;;;;;;;5.82;3.15;;;16.30;97.10;;;;;;4195798;28;20028;-60
2022/06/25 01:03:00;;;;;;;5.45;2.65;;;16.30;97.20;;;;;;4197122;28;20447;-60
2022/06/25 01:05:10;;;;;;;3.15;2.85;;;16.40;97.20;;;;;;4195987;28;20029;-60
2022/06/25 01:07:12;;;;;;;4.43;2.92;;;16.40;97.30;;;;;;4196648;28;20419;-60
2022/06/25 01:09:13;;;;;;;5.50;3.53;;;16.30;97.20;;;;;;4195765;28;20028;-61
2022/06/25 01:11:14;;;;;;;4.40;3.20;;;16.40;97.30;;;;;;4199629;28;20040;-62
2022/06/25 01:13:19;;;;;;;5.13;2.88;;;16.40;97.40;;;;;;4213072;28;20036;-62
2022/06/25 01:15:20;;;;;;;3.75;2.78;;;16.40;97.40;;;;;;4212882;28;20020;-61
2022/06/25 01:17:21;;;;;;;4.07;2.83;;;16.30;97.40;;;;;;4212989;28;20054;-61
2022/06/25 01:19:22;;;;;;;6.13;2.95;;;16.30;97.50;;;;;;4212273;28;20081;-61
2022/06/25 01:21:23;;;;;;;5.78;2.67;;;16.30;97.60;;;;;;4213210;28;20036;-65
2022/06/25 01:23:25;;;;;;;8.48;2.55;;;16.30;97.60;;;;;;4212152;28;20109;-62
2022/06/25 01:25:36;;;;;;;2.25;1.98;;;16.20;97.70;;;;;;4200523;28;20090;-61
2022/06/25 01:27:37;;;;;;;12.05;2.90;;;16.10;97.90;;;;;;4195550;28;20037;-63
2022/06/25 01:29:38;;;;;;;5.82;2.38;;;15.90;98.10;;;;;;4196416;28;20024;-59
2022/06/25 01:31:39;;;;;;;3.08;2.28;;;15.80;98.40;;;;;;4195447;28;20045;-61
2022/06/25 01:33:40;;;;;;;4.35;2.28;;;15.70;98.60;;;;;;4196316;28;20047;-62
2022/06/25 01:35:42;;;;;;;6.60;2.20;;;15.60;98.70;;;;;;4195252;28;20036;-62
2022/06/25 01:37:43;;;;;;;3.95;2.40;;;15.50;99.10;;;;;;4196616;28;20370;-60
2022/06/25 01:39:44;;;;;;;3.90;2.58;;;15.40;99.20;;;;;;4195339;28;20032;-61
2022/06/25 01:41:45;;;;;;;3.50;2.58;;;15.30;99.50;;;;;;4196071;28;20090;-62
2022/06/25 01:43:46;;;;;;;6.22;2.63;;;15.30;99.70;;;;;;4195958;28;20058;-63
2022/06/25 01:45:47;;;;;;;4.85;2.97;;;15.20;99.80;;;;;;4203142;28;20097;-62
2022/06/25 01:47:49;;;;;;;7.13;3.33;;;15.20;99.90;;;;;;4211992;28;20024;-60
2022/06/25 01:49:50;;;;;;;7.78;2.70;;;15.20;99.90;;;;;;4210945;28;20044;-62
2022/06/25 01:51:51;;;;;;;4.38;2.60;;;15.20;99.90;;;;;;4210681;28;20044;-63
2022/06/25 01:53:52;;;;;;;3.28;2.40;;;15.10;99.90;;;;;;4211674;28;20040;-60
2022/06/25 01:55:54;;;;;;;3.90;2.50;;;15.10;99.90;;;;;;4212543;28;20024;-62
2022/06/25 01:57:55;;;;;;;3.95;2.78;;;15.10;99.90;;;;;;4211562;28;20044;-64
2022/06/25 01:59:56;;;;;;;7.50;3.05;;;15.00;99.90;;;;;;4212675;28;20073;-60
2022/06/25 02:01:57;;;;;;;7.50;3.38;;;15.10;99.90;;;;;;4211280;28;20052;-61
2022/06/25 02:03:59;;;;;;;5.90;2.80;;;15.10;99.90;;;;;;4212453;28;20389;-62
2022/06/25 02:06:00;;;;;;;10.40;2.67;;;15.10;99.90;;;;;;4198134;28;20094;-64
2022/06/25 02:08:02;;;;;;;6.93;3.17;;;15.10;99.90;;;;;;4195969;28;20055;-63
2022/06/25 02:10:04;;;;;;;6.43;2.60;;;15.10;99.90;;;;;;4194866;28;20041;-64
2022/06/25 02:12:07;;;;;;;7.22;2.65;;;15.10;99.90;;;;;;4195508;28;20090;-64
2022/06/25 02:14:08;;;;;;;4.25;2.45;;;15.10;99.90;;;;;;4195921;28;20074;-64
2022/06/25 02:16:09;;;;;;;3.35;2.42;;;15.20;99.90;;;;;;4195348;28;20025;-64
2022/06/25 02:18:10;;;;;;;7.43;3.35;;;15.20;99.90;;;;;;4195079;28;20044;-63
2022/06/25 02:20:11;;;;;;;5.80;2.75;;;15.20;99.90;;;;;;4195046;28;20040;-65
2022/06/25 02:22:14;;;;;;;5.80;2.50;;;15.20;99.90;;;;;;4195078;28;20465;-63
2022/06/25 02:24:16;;;;;;;4.47;2.97;;;15.20;99.90;;;;;;4194842;28;20040;-64
2022/06/25 02:26:17;;;;;;;6.60;3.55;;;15.20;99.90;;;;;;4195158;28;20423;-63
2022/06/25 02:28:18;;;;;;;8.18;2.97;;;15.20;99.90;;;;;;4200469;28;20024;-67
2022/06/25 02:30:19;;;;;;;3.97;2.70;;;15.20;99.90;;;;;;4212074;28;20043;-64
2022/06/25 02:32:21;;;;;;;8.43;2.75;;;15.30;99.90;;;;;;4211079;28;20099;-65
2022/06/25 02:34:22;;;;;;;4.95;2.70;;;15.30;99.90;;;;;;4212141;28;20036;-62
2022/06/25 02:36:23;;;;;;;8.30;3.47;;;15.30;99.90;;;;;;4210925;28;20020;-60
2022/06/25 02:38:24;;;;;;;4.90;2.90;;;15.30;99.90;;;;;;4211865;28;20561;-62
2022/06/25 02:40:25;;;;;;;4.93;2.55;;;15.40;99.90;;;;;;4210811;28;20078;-63
2022/06/25 02:42:33;;;;;;;5.70;2.70;;;15.40;99.90;;;;;;4210803;28;20039;-63
2022/06/25 02:44:35;;;;;;;5.78;3.40;;;15.60;99.90;;;;;;4194476;28;20427;-66
2022/06/25 02:46:36;;;;;;;3.83;2.90;;;15.60;99.90;;;;;;4195179;28;20024;-65
2022/06/25 02:48:37;;;;;;;4.25;2.65;;;15.70;99.90;;;;;;4194274;28;20493;-62
2022/06/25 02:50:38;;;;;;;5.78;2.65;;;15.90;99.90;;;;;;4194482;28;20045;-64
2022/06/25 02:52:40;;;;;;;3.45;2.60;;;16.10;99.90;;;;;;4194434;28;20032;-62
2022/06/25 02:54:41;;;;;;;5.88;3.22;;;16.20;99.90;;;;;;4194248;28;20488;-65
2022/06/25 02:59:02;;;;;;;7.55;2.72;;;16.50;99.90;;;;;;4178027;28;20033;-62
2022/06/25 03:01:03;;;;;;;4.57;2.35;;;16.70;99.90;;;;;;4178030;28;20037;-64
2022/06/25 03:03:04;;;;;;;6.68;3.10;;;17.00;99.90;;;;;;4177322;28;20052;-63
2022/06/25 03:05:06;;;;;;;4.30;2.45;;;17.20;99.90;;;;;;4178276;28;20041;-64
2022/06/25 03:07:07;;;;;;;12.75;3.40;;;17.40;99.90;;;;;;4186007;28;20109;-60
2022/06/25 03:09:08;;;;;;;4.88;2.63;;;17.70;99.60;;;;;;4211787;28;20044;-61
2022/06/25 03:11:09;;;;;;;4.82;2.83;;;18.00;99.10;;;;;;4210176;28;20392;-64
2022/06/25 03:13:11;;;;;;;6.53;3.00;;;18.30;98.60;;;;;;4210719;28;20048;-66
2022/06/25 03:15:12;;;;;;;7.13;2.90;;;18.50;98.00;;;;;;4193987;28;20114;-61
2022/06/25 03:17:13;;;;;;;4.32;2.83;;;18.80;97.50;;;;;;4194857;28;20037;-61
2022/06/25 03:19:15;;;;;;;4.45;3.00;;;19.20;96.80;;;;;;4193999;28;20070;-64
2022/06/25 03:21:16;;;;;;;6.95;3.15;;;19.50;96.10;;;;;;4196124;28;20036;-64
2022/06/25 03:23:17;;;;;;;6.45;2.60;;;19.90;95.50;;;;;;4193798;28;21199;-63
2022/06/25 03:25:18;;;;;;;4.38;2.78;;;20.20;94.80;;;;;;4194399;28;20032;-65
2022/06/25 03:27:19;;;;;;;5.90;2.80;;;20.50;94.30;;;;;;4193951;28;20461;-64
2022/06/25 03:29:21;;;;;;;6.13;2.72;;;20.70;93.80;;;;;;4194216;28;20041;-61
2022/06/25 03:31:22;;;;;;;7.05;2.70;;;20.90;93.20;;;;;;4194480;28;20044;-64
2022/06/25 03:33:23;;;;;;;3.30;2.20;;;21.10;92.80;;;;;;4193916;28;20048;-64
2022/06/25 03:35:25;;;;;;;7.60;2.53;;;21.30;92.50;;;;;;4194758;28;20082;-62
2022/06/25 03:37:26;;;;;;;5.28;2.55;;;21.60;92.10;;;;;;4209888;28;20048;-61
2022/06/25 03:39:27;;;;;;;5.47;2.20;;;21.80;91.70;;;;;;4211323;28;20040;-62
2022/06/25 03:41:37;;;;;;;3.90;2.67;;;22.00;91.40;;;;;;4209865;28;20054;-63
2022/06/25 03:43:38;;;;;;;2.13;2.00;;;22.30;91.00;;;;;;4211574;28;20032;-64
2022/06/25 03:45:39;;;;;;;2.20;1.65;;;22.70;90.40;;;;;;4210264;28;20085;-66
2022/06/25 03:47:41;;;;;;;5.13;1.83;;;23.10;89.80;;;;;;4211243;28;20438;-63
2022/06/25 03:49:42;;;;;;;3.28;1.65;;;23.50;88.20;;;;;;4205648;28;20036;-64
2022/06/25 03:51:43;;;;;;;2.92;1.95;;;23.90;86.90;;;;;;4194804;28;20049;-65
2022/06/25 03:53:44;;;;;;;2.90;1.70;;;24.00;85.70;;;;;;4199227;28;20053;-62
2022/06/25 03:55:45;;;;;;;2.53;2.17;;;24.20;84.90;;;;;;4210954;28;20073;-65
2022/06/25 03:57:46;;;;;;;7.07;2.40;;;24.30;84.40;;;;;;4208503;28;20081;-64
2022/06/25 03:59:48;;;;;;;6.40;3.22;;;24.40;83.90;;;;;;4194184;28;20071;-65
2022/06/25 04:01:49;;;;;;;5.88;3.72;;;23.80;83.80;;;;;;4193602;28;20102;-64
2022/06/25 04:03:50;;;;;;;9.32;4.55;;;23.40;84.80;;;;;;4193698;28;20078;-60
2022/06/25 04:05:51;;;;;;;8.23;3.45;;;23.30;85.20;;;;;;4194210;28;20450;-66
2022/06/25 04:07:52;;;;;;;7.18;3.38;;;23.70;84.90;;;;;;4193284;28;20032;-62
2022/06/25 04:09:54;;;;;;;7.85;3.40;;;24.30;83.70;;;;;;4205741;28;20081;-66
2022/06/25 04:11:56;;;;;;;5.47;3.10;;;24.80;82.30;;;;;;4209781;28;20106;-65
2022/06/25 04:13:57;;;;;;;7.10;3.55;;;25.30;81.20;;;;;;4214005;28;20370;-65
2022/06/25 04:15:58;;;;;;;7.97;3.10;;;25.90;80.00;;;;;;4213024;28;20036;-66
2022/06/25 04:17:59;;;;;;;8.45;3.58;;;26.40;78.90;;;;;;4202178;28;20141;-65
2022/06/25 04:20:02;;;;;;;10.02;4.32;;;26.70;77.80;;;;;;4196192;28;20098;-66
2022/06/25 04:22:03;;;;;;;10.70;4.00;;;27.00;77.10;;;;;;4197648;28;20044;-62
2022/06/25 04:24:04;;;;;;;4.72;3.80;;;27.20;76.30;;;;;;4198456;28;20351;-66
2022/06/25 04:26:05;;;;;;;9.10;3.75;;;27.50;75.80;;;;;;4213872;28;20039;-66
2022/06/25 04:30:27;;;;;;;5.55;2.55;;;27.70;74.90;;;;;;4214538;28;20089;-67
2022/06/25 04:32:28;;;;;;;6.78;3.20;;;28.00;74.60;;;;;;4212852;28;20055;-61
2022/06/25 04:34:29;;;;;;;13.20;2.80;;;27.90;74.20;;;;;;4213629;28;20533;-64
2022/06/25 04:36:31;;;;;;;6.63;3.00;;;27.90;74.00;;;;;;4213133;28;20069;-64
2022/06/25 04:38:32;;;;;;;5.28;2.70;;;27.80;74.00;;;;;;4212789;28;20032;-62
2022/06/25 04:40:34;;;;;;;7.80;2.95;;;27.40;74.20;;;;;;4213390;28;20028;-63
2022/06/25 04:42:35;;;;;;;11.35;2.70;;;27.50;74.10;;;;;;4212243;28;20040;-64
2022/06/25 04:44:36;;;;;;;5.28;3.08;;;27.60;73.70;;;;;;4212296;28;20545;-65
2022/06/25 04:46:37;;;;;;;10.20;3.13;;;27.60;73.40;;;;;;4212485;28;20028;-62
2022/06/25 04:48:39;;;;;;;9.60;2.92;;;27.70;73.30;;;;;;4213518;28;20090;-62
2022/06/25 04:50:43;;;;;;;7.22;3.17;;;27.20;73.20;;;;;;4212417;28;20550;-65
2022/06/25 04:52:44;;;;;;;9.68;3.28;;;27.00;73.60;;;;;;4213510;28;20097;-65
2022/06/25 04:54:45;;;;;;;6.25;2.72;;;27.10;73.60;;;;;;4211004;28;20040;-63
2022/06/25 04:56:46;;;;;;;13.27;3.03;;;27.50;73.10;;;;;;4213855;28;20085;-64
2022/06/25 04:58:47;;;;;;;10.45;3.25;;;27.80;72.80;;;;;;4212052;28;20086;-66
2022/06/25 05:00:49;;;;;;;17.45;3.75;;;28.10;72.40;;;;;;4213481;28;20089;-63
2022/06/25 05:02:50;;;;;;;12.05;3.83;;;28.40;71.90;;;;;;4212057;28;20093;-62
2022/06/25 05:04:51;;;;;;;8.23;3.55;;;28.80;71.20;;;;;;4198076;28;20024;-64
2022/06/25 05:06:52;;;;;;;9.45;3.08;;;29.00;70.60;;;;;;4193745;28;20032;-63
2022/06/25 05:08:53;;;;;;;10.95;3.20;;;29.10;70.40;;;;;;4194364;28;20039;-64
2022/06/25 05:10:54;;;;;;;11.77;3.97;;;28.80;70.20;;;;;;4196187;28;20036;-65
2022/06/25 05:13:14;;;;;;;11.15;3.33;;;28.40;70.40;;;;;;4195999;28;20054;-66
2022/06/25 05:15:15;;;;;;;18.08;3.80;;;28.00;71.00;;;;;;4196436;28;20032;-63
2022/06/25 05:17:16;;;;;;;9.63;3.75;;;27.60;71.50;;;;;;4195505;28;20037;-64
2022/06/25 05:19:17;;;;;;;7.65;3.30;;;27.20;71.90;;;;;;4196354;28;20066;-65
2022/06/25 05:21:18;;;;;;;15.00;3.50;;;26.90;72.20;;;;;;4195007;28;20033;-66
2022/06/25 05:23:20;;;;;;;13.05;3.70;;;26.70;72.40;;;;;;4196321;28;20098;-66
2022/06/25 05:25:21;;;;;;;16.95;3.75;;;27.00;72.30;;;;;;4196383;28;20148;-66
2022/06/25 05:27:23;;;;;;;14.48;4.10;;;27.00;72.30;;;;;;4195915;28;20447;-65
2022/06/25 05:29:24;;;;;;;11.25;4.50;;;27.20;71.90;;;;;;4194717;28;20350;-65
2022/06/25 05:31:25;;;;;;;18.42;4.53;;;26.80;71.80;;;;;;4196226;28;20049;-64
2022/06/25 05:33:26;;;;;;;14.02;5.63;;;27.00;71.70;;;;;;4195073;28;20101;-64
2022/06/25 05:35:27;;;;;;;24.38;4.55;;;26.90;71.30;;;;;;4196281;28;20509;-65
2022/06/25 05:37:28;;;;;;;15.77;5.25;;;27.00;71.30;;;;;;4194906;28;20439;-65
2022/06/25 05:39:30;;;;;;;10.98;3.78;;;27.10;71.50;;;;;;4203578;28;20109;-66
2022/06/25 05:41:31;;;;;;;9.73;4.00;;;26.90;71.10;;;;;;4211629;28;20434;-66
2022/06/25 05:43:32;;;;;;;13.07;3.72;;;26.80;71.50;;;;;;4211118;28;20466;-62
2022/06/25 05:45:34;;;;;;;5.55;2.70;;;26.40;72.00;;;;;;4212568;28;20043;-62
2022/06/25 05:47:35;;;;;;;8.50;2.53;;;26.10;72.00;;;;;;4211664;28;20504;-65
2022/06/25 05:49:36;;;;;;;27.70;2.72;;;25.50;72.70;;;;;;4212354;28;20036;-65
2022/06/25 05:51:38;;;;;;;7.38;1.98;;;25.10;73.10;;;;;;4209503;28;20121;-65
2022/06/25 05:53:39;;;;;;;9.73;2.40;;;25.10;73.20;;;;;;4212367;28;20082;-65
2022/06/25 05:55:40;;;;;;;5.25;2.85;;;25.10;72.90;;;;;;4211467;28;20817;-63
2022/06/25 05:57:41;;;;;;;8.13;2.70;;;25.30;73.00;;;;;;4212036;28;20074;-62
2022/06/25 05:59:42;;;;;;;9.65;3.20;;;25.20;73.20;;;;;;4211345;28;20877;-64
2022/06/25 06:01:43;;;;;;;4.43;2.60;;;25.00;73.70;;;;;;4197470;28;20066;-63
2022/06/25 06:03:44;;;;;;;6.60;2.72;;;25.20;73.70;;;;;;4193976;28;20028;-65
2022/06/25 06:05:45;;;;;;;8.30;2.78;;;25.20;74.20;;;;;;4194868;28;20719;-63
2022/06/25 06:07:46;;;;;;;3.88;2.53;;;25.40;74.50;;;;;;4194015;28;20037;-66
2022/06/25 06:09:48;;;;;;;6.10;2.50;;;25.20;74.50;;;;;;4201728;28;20040;-62
2022/06/25 06:11:49;;;;;;;7.35;2.50;;;25.30;74.70;;;;;;4211085;28;20100;-64
2022/06/25 06:13:50;;;;;;;4.25;2.50;;;25.50;74.30;;;;;;4211806;28;20533;-65
2022/06/25 06:15:51;;;;;;;5.78;2.53;;;25.60;74.50;;;;;;4211568;28;20024;-65
2022/06/25 06:17:52;;;;;;;6.78;2.83;;;25.80;74.60;;;;;;4211262;28;20080;-66
2022/06/25 06:19:53;;;;;;;4.72;2.72;;;26.00;74.10;;;;;;4211994;28;20031;-66
2022/06/25 06:21:54;;;;;;;6.13;2.40;;;25.70;74.40;;;;;;4210819;28;20093;-63
2022/06/25 06:23:55;;;;;;;9.68;3.35;;;25.00;75.30;;;;;;4203048;28;20098;-65
2022/06/25 06:25:57;;;;;;;9.75;3.63;;;24.60;76.50;;;;;;4194240;28;20098;-63
2022/06/25 06:27:58;;;;;;;5.43;3.50;;;24.30;77.30;;;;;;4195140;28;20029;-65
2022/06/25 06:29:59;;;;;;;2.67;2.20;;;24.40;77.50;;;;;;4193974;28;20053;-64
2022/06/25 06:32:00;;;;;;;8.23;2.85;;;24.20;77.80;;;;;;4194964;28;20500;-66
2022/06/25 06:34:02;;;;;;;5.57;3.60;;;24.40;78.00;;;;;;4194097;28;20078;-60
2022/06/25 06:36:03;;;;;;;9.20;3.15;;;24.40;78.90;;;;;;4194518;28;20020;-65
2022/06/25 06:38:04;;;;;;;8.45;3.05;;;24.50;78.20;;;;;;4204214;28;20020;-63
2022/06/25 06:40:07;;;;;;;5.03;3.28;;;24.50;78.80;;;;;;4211413;28;20024;-65
2022/06/25 06:42:08;;;;;;;5.75;3.30;;;24.30;79.60;;;;;;4196531;28;20017;-65
2022/06/25 06:44:09;;;;;;;8.05;3.15;;;24.20;80.30;;;;;;4194728;28;20044;-62
2022/06/25 06:46:15;;;;;;;7.82;3.25;;;24.60;79.70;;;;;;4198295;28;20028;-65
2022/06/25 06:48:16;;;;;;;6.53;3.50;;;24.40;80.10;;;;;;4210823;28;20081;-61
2022/06/25 06:50:17;;;;;;;6.00;4.07;;;24.20;81.00;;;;;;4211029;28;20081;-66
2022/06/25 06:52:19;;;;;;;7.85;3.60;;;24.10;81.40;;;;;;4195996;28;20130;-62
2022/06/25 06:54:20;;;;;;;9.70;3.97;;;24.20;81.50;;;;;;4193332;28;20032;-62
2022/06/25 06:56:21;;;;;;;7.35;2.88;;;24.40;81.30;;;;;;4193441;28;20020;-63
2022/06/25 06:58:22;;;;;;;7.25;3.72;;;24.30;81.40;;;;;;4194525;28;20424;-63
2022/06/25 07:00:23;;;;;;;4.28;3.40;;;24.40;81.70;;;;;;4193751;28;20049;-64
2022/06/25 07:02:25;;;;;;;10.70;3.20;;;24.70;81.20;;;;;;4194092;28;20547;-61
2022/06/25 07:04:27;;;;;;;7.70;3.33;;;24.80;81.00;;;;;;4193499;28;20032;-65
2022/06/25 07:06:28;;;;;;;4.60;2.83;;;25.00;80.60;;;;;;4199319;28;20028;-63
2022/06/25 07:08:29;;;;;;;5.97;3.33;;;25.00;80.40;;;;;;4210149;28;20058;-63
2022/06/25 07:10:30;;;;;;;8.93;2.63;;;25.30;80.10;;;;;;4211328;28;20180;-63
2022/06/25 07:12:31;;;;;;;4.50;2.75;;;25.30;79.90;;;;;;4209941;28;20056;-63
2022/06/25 07:14:32;;;;;;;3.88;2.47;;;25.50;79.90;;;;;;4196781;28;20496;-63
2022/06/25 07:16:34;;;;;;;3.78;2.25;;;25.60;79.60;;;;;;4193987;28;20064;-62
2022/06/25 07:18:35;;;;;;;9.30;2.63;;;25.60;79.70;;;;;;4193509;28;20386;-63
2022/06/25 07:20:36;;;;;;;4.90;2.50;;;25.60;79.70;;;;;;4194442;28;20477;-62
2022/06/25 07:22:38;;;;;;;5.57;2.53;;;25.50;79.70;;;;;;4193396;28;20028;-67
2022/06/25 07:24:39;;;;;;;4.18;1.98;;;25.50;79.90;;;;;;4194674;28;20048;-62
2022/06/25 07:26:40;;;;;;;8.35;1.95;;;25.70;79.80;;;;;;4193119;28;20535;-63
2022/06/25 07:28:41;;;;;;;2.22;2.03;;;26.00;79.40;;;;;;4203256;28;20093;-62
2022/06/25 07:30:43;;;;;;;1.95;1.73;;;26.00;79.00;;;;;;4209922;28;20470;-62
2022/06/25 07:32:44;;;;;;;5.00;1.90;;;26.00;79.00;;;;;;4210826;28;20558;-62
2022/06/25 07:34:45;;;;;;;4.13;1.88;;;26.00;79.00;;;;;;4209940;28;20028;-63
2022/06/25 07:36:46;;;;;;;2.40;1.70;;;26.30;78.70;;;;;;4211022;28;20052;-63
2022/06/25 07:38:47;;;;;;;3.50;1.92;;;26.70;78.00;;;;;;4209752;28;20069;-64
2022/06/25 07:40:49;;;;;;;2.78;1.70;;;26.80;77.60;;;;;;4204198;28;20041;-63
2022/06/25 07:42:50;;;;;;;4.28;2.40;;;27.10;77.30;;;;;;4193098;28;20314;-62
2022/06/25 07:44:52;;;;;;;3.65;1.70;;;27.60;76.80;;;;;;4194615;28;20089;-62
2022/06/25 07:46:53;;;;;;;2.70;1.60;;;27.90;76.10;;;;;;4197243;28;20048;-61
2022/06/25 07:48:55;;;;;;;1.77;1.45;;;27.60;75.60;;;;;;4196011;28;20082;-62
2022/06/25 07:53:16;;;;;;;6.40;2.80;;;27.70;75.20;;;;;;4180921;28;20066;-61
2022/06/25 07:55:17;;;;;;;5.78;1.60;;;27.90;74.60;;;;;;4180948;28;20033;-63
2022/06/25 07:57:18;;;;;;;5.55;1.20;;;28.30;74.00;;;;;;4186787;28;20070;-66
2022/06/25 07:59:19;;;;;;;3.00;1.55;;;28.90;73.30;;;;;;4197161;28;20142;-61
2022/06/25 08:01:20;;;;;;;4.80;1.52;;;29.30;72.80;;;;;;4196202;28;20082;-63
2022/06/25 08:03:22;;;;;;;1.73;1.20;;;29.70;72.50;;;;;;4197273;28;20981;-68
2022/06/25 08:05:23;;;;;;;5.70;1.40;;;29.90;71.40;;;;;;4196167;28;20094;-65
2022/06/25 08:07:24;;;;;;;2.88;1.20;;;30.00;71.60;;;;;;4206464;28;20093;-65
2022/06/25 08:09:25;;;;;;;2.97;1.17;;;30.20;71.10;;;;;;4212933;28;20032;-68
2022/06/25 08:11:26;;;;;;;3.08;1.30;;;30.30;70.90;;;;;;4213933;28;20375;-66
2022/06/25 08:13:28;;;;;;;3.55;1.60;;;30.20;70.10;;;;;;4208444;28;20048;-62
2022/06/25 08:15:29;;;;;;;3.05;1.35;;;30.00;69.60;;;;;;4200588;28;20032;-62
2022/06/25 08:17:30;;;;;;;4.30;1.20;;;30.10;69.30;;;;;;4195854;28;20044;-62
2022/06/25 08:19:31;;;;;;;5.60;0.90;;;30.30;69.00;;;;;;4197162;28;20530;-63
2022/06/25 08:21:33;;;;;;;1.92;1.10;;;30.40;68.40;;;;;;4195963;28;20036;-64
2022/06/25 08:23:34;;;;;;;4.38;1.17;;;30.10;68.00;;;;;;4196462;28;20032;-63
2022/06/25 08:25:35;;;;;;;1.83;1.10;;;29.70;67.80;;;;;;4195734;28;20070;-63
2022/06/25 08:27:50;;;;;;;2.28;1.27;;;29.30;67.80;;;;;;4195661;28;20523;-63
2022/06/25 08:29:51;;;;;;;3.00;1.20;;;28.90;67.90;;;;;;4194493;28;20511;-63
2022/06/25 08:31:53;;;;;;;2.55;0.93;;;28.80;68.20;;;;;;4195739;28;20058;-64
2022/06/25 08:33:54;;;;;;;2.25;0.98;;;28.90;67.90;;;;;;4196905;28;20885;-66
2022/06/25 08:35:56;;;;;;;5.65;0.80;;;28.90;67.50;;;;;;4195084;28;20058;-61
2022/06/25 08:37:57;;;;;;;0.75;0.68;;;29.30;67.40;;;;;;4197138;28;20551;-66
2022/06/25 08:39:58;;;;;;;3.42;0.90;;;29.30;66.70;;;;;;4195503;28;20553;-62
2022/06/25 08:42:03;;;;;;;4.57;1.70;;;29.50;66.70;;;;;;4201134;28;20044;-65
2022/06/25 08:44:04;;;;;;;4.13;0.85;;;29.60;66.60;;;;;;4212474;28;20035;-64
2022/06/25 08:46:06;;;;;;;4.20;1.33;;;29.70;66.30;;;;;;4213501;28;20024;-66
2022/06/25 08:48:19;;;;;;;2.53;1.02;;;29.90;66.30;;;;;;4211874;28;20036;-61
2022/06/25 08:50:21;;;;;;;2.95;0.82;;;30.20;65.20;;;;;;4212980;28;20484;-64
2022/06/25 08:52:23;;;;;;;4.43;1.05;;;30.60;65.00;;;;;;4201301;28;20104;-66
2022/06/25 08:54:25;;;;;;;3.22;1.55;;;30.80;64.90;;;;;;4196420;28;20295;-62
2022/06/25 08:56:26;;;;;;;2.13;0.90;;;31.10;64.80;;;;;;4195558;28;20485;-66
2022/06/25 08:58:27;;;;;;;1.40;0.90;;;31.30;64.80;;;;;;4196479;28;20082;-65
2022/06/25 09:00:31;;;;;;;5.28;1.00;;;31.60;64.60;;;;;;4204826;28;20555;-71
2022/06/25 09:02:32;;;;;;;0.77;0.70;;;31.50;63.50;;;;;;4195632;28;20048;-69
2022/06/25 09:04:33;;;;;;;4.40;0.90;;;30.60;63.20;;;;;;4195843;28;20094;-68
2022/06/25 09:06:34;;;;;;;0.93;0.80;;;30.10;63.70;;;;;;4194845;28;20505;-66
2022/06/25 09:08:35;;;;;;;2.95;0.73;;;29.80;63.70;;;;;;4195689;28;20499;-66
2022/06/25 09:10:38;;;;;;;3.17;0.75;;;29.50;63.70;;;;;;4194878;28;20033;-68
2022/06/25 09:12:52;;;;;;;3.13;0.85;;;29.40;63.70;;;;;;4195076;28;20044;-64
2022/06/25 09:14:54;;;;;;;3.28;1.00;;;29.40;63.40;;;;;;4195384;28;20029;-63
2022/06/25 09:17:07;;;;;;;0.85;0.70;;;29.40;63.50;;;;;;4195434;28;20102;-62
2022/06/25 09:19:08;;;;;;;0.85;0.60;;;29.30;63.10;;;;;;4194775;28;20033;-71
2022/06/25 09:21:10;;;;;;;2.47;1.10;;;29.20;62.60;;;;;;4195391;28;20681;-62
2022/06/25 09:23:11;;;;;;;1.55;1.10;;;29.10;62.90;;;;;;4193096;28;20489;-66
2022/06/25 09:25:12;;;;;;;6.03;0.90;;;29.30;63.10;;;;;;4196105;28;20109;-65
2022/06/25 09:27:18;;;;;;;3.78;0.80;;;29.40;63.10;;;;;;4196898;28;20508;-67
2022/06/25 09:29:19;;;;;;;1.90;1.00;;;29.50;63.10;;;;;;4204088;28;20173;-67
2022/06/25 09:31:37;;;;;;;2.08;0.85;;;29.60;62.90;;;;;;4211353;28;20028;-64
2022/06/25 09:33:40;;;;;;;2.42;0.70;;;29.50;60.70;;;;;;4210801;28;20098;-67
2022/06/25 09:35:42;;;;;;;3.00;0.85;;;29.40;61.80;;;;;;4210714;28;20451;-66
2022/06/25 09:37:43;;;;;;;1.45;0.85;;;29.30;61.60;;;;;;4212574;28;20028;-64
2022/06/25 09:39:46;;;;;;;3.25;0.88;;;29.50;61.80;;;;;;4210948;28;20104;-63
2022/06/25 09:41:53;;;;;;;0.88;0.75;;;29.60;61.40;;;;;;4210450;28;20032;-67
2022/06/25 09:43:54;;;;;;;2.00;0.85;;;29.50;61.60;;;;;;4211309;28;20062;-64
2022/06/25 09:46:01;;;;;;;1.67;0.85;;;29.60;61.90;;;;;;4210805;28;20089;-65
2022/06/25 09:48:02;;;;;;;2.85;1.10;;;29.80;61.80;;;;;;4211607;28;20106;-66
2022/06/25 09:50:05;;;;;;;11.57;1.23;;;29.70;61.80;;;;;;4211217;28;20032;-66
2022/06/25 09:52:07;;;;;;;1.42;0.90;;;29.80;62.00;;;;;;4212021;28;20077;-64
2022/06/25 09:54:09;;;;;;;3.25;1.00;;;29.90;62.00;;;;;;4209883;28;20105;-70
2022/06/25 09:56:12;;;;;;;2.85;0.73;;;30.00;61.00;;;;;;4211585;28;20133;-69
2022/06/25 09:58:13;;;;;;;3.03;1.17;;;29.60;60.10;;;;;;4211024;28;20456;-65
2022/06/25 10:00:16;;;;;;;3.97;1.17;;;29.40;60.60;;;;;;4212255;28;20100;-68
2022/06/25 10:02:19;;;;;;;2.40;1.20;;;29.30;60.50;;;;;;4210715;28;20135;-65
2022/06/25 10:04:21;;;;;;;2.00;0.90;;;29.40;60.50;;;;;;4212322;28;20012;-62
2022/06/25 10:06:23;;;;;;;2.65;1.15;;;29.30;59.60;;;;;;4210207;28;20391;-69
2022/06/25 10:08:27;;;;;;;3.25;0.80;;;29.20;59.80;;;;;;4210880;28;20032;-65
2022/06/25 10:10:33;;;;;;;1.55;0.90;;;29.10;59.30;;;;;;4194772;28;20097;-69
2022/06/25 10:12:34;;;;;;;6.05;0.90;;;28.80;59.00;;;;;;4195942;28;20025;-67
2022/06/25 10:14:36;;;;;;;1.10;0.80;;;28.80;59.50;;;;;;4211080;28;20081;-67
2022/06/25 10:16:38;;;;;;;2.08;0.80;;;28.90;59.60;;;;;;4212453;28;20028;-66
2022/06/25 10:18:40;;;;;;;2.78;1.05;;;29.00;59.30;;;;;;4210882;28;20081;-67
2022/06/25 10:20:42;;;;;;;2.58;1.23;;;29.10;58.90;;;;;;4208804;28;20028;-66
2022/06/25 10:22:46;;;;;;;1.17;1.00;;;29.10;58.60;;;;;;4194126;28;20453;-66
2022/06/25 10:24:47;;;;;;;2.30;1.20;;;29.10;58.60;;;;;;4194509;28;20102;-69
2022/06/25 10:26:48;;;;;;;1.90;0.90;;;29.20;58.80;;;;;;4194484;28;20037;-69
2022/06/25 10:28:49;;;;;;;2.65;0.73;;;29.30;58.50;;;;;;4194052;28;20036;-64
2022/06/25 10:30:53;;;;;;;1.95;1.27;;;29.40;58.50;;;;;;4195694;28;20032;-68
2022/06/25 10:32:56;;;;;;;1.60;1.27;;;29.60;58.80;;;;;;4210566;28;20113;-66
2022/06/25 10:35:01;;;;;;;2.78;1.00;;;29.70;58.30;;;;;;4211099;28;20097;-66
2022/06/25 10:37:02;;;;;;;5.45;0.93;;;29.70;58.30;;;;;;4210718;28;20644;-63
2022/06/25 10:39:22;;;;;;;1.10;0.85;;;29.60;57.90;;;;;;4210208;28;20509;-70
2022/06/25 10:43:53;;;;;;;1.77;0.93;;;29.30;57.80;;;;;;4195059;28;20087;-66
2022/06/25 10:45:54;;;;;;;4.53;1.27;;;29.00;58.00;;;;;;4194085;28;20091;-66